Weather at Laúndos Airfield

Public forecast

Using degrees Celsius for public forecast. Weather courtesy of forecast.io.

Closest aviation weather report (METAR) to Laúndos Airfield

Closest report is Francisco de Sá Carneiro Airport, 12.1 nm (22.4 km) S. Retrieved 2020/10/21 04:30 UTC (0 seconds ago):

LPPR 210430Z 19008KT 9999 SCT015 SCT030 14/14 Q1002

Closest aviation forecast (TAF) to Laúndos Airfield

Closest forecast is Francisco de Sá Carneiro Airport, 12.1 nm (22.4 km) S. Retrieved 2020-10-21 00:18 UTC (4 hours ago):

TAF LPPR 202300Z 2100/2124 19015KT 5000 BR SCT002 BKN004 PROB30 TEMPO 2100/2107 1200 PRFG BKN001 BECMG 2102/2105 19007KT BECMG 2108/2111 22012KT 9999 NSW SCT008 SCT018 TEMPO 2110/2120 5000 SHRA SCT006 BKN014 BECMG 2122/2124 15005KT